createdAt,value
2022-10-09T00:01:25.418Z,14.44
2022-10-09T00:04:28.352Z,14.35
2022-10-09T00:07:30.867Z,14.33
2022-10-09T00:10:33.938Z,14.30
2022-10-09T00:13:37.697Z,14.29
2022-10-09T00:16:40.598Z,14.26
2022-10-09T00:19:43.275Z,14.22
2022-10-09T00:22:46.407Z,14.11
2022-10-09T00:26:01.917Z,14.06
2022-10-09T00:29:04.761Z,14.00
2022-10-09T00:32:07.367Z,13.96
2022-10-09T00:35:10.205Z,13.88
2022-10-09T00:38:13.480Z,13.90
2022-10-09T00:41:19.897Z,13.89
2022-10-09T00:44:54.202Z,13.84
2022-10-09T00:48:07.010Z,13.80
2022-10-09T00:51:10.092Z,13.80
2022-10-09T00:54:18.066Z,13.71
2022-10-09T00:57:20.801Z,13.59
2022-10-09T01:00:24.041Z,13.62
2022-10-09T01:03:26.717Z,13.58
2022-10-09T01:06:50.642Z,13.55
2022-10-09T01:10:05.797Z,13.53
2022-10-09T01:13:42.708Z,13.54
2022-10-09T01:17:06.957Z,13.52
2022-10-09T01:20:36.054Z,13.43
2022-10-09T01:24:05.907Z,13.45
2022-10-09T01:27:14.463Z,13.40
2022-10-09T01:30:17.101Z,13.32
2022-10-09T01:33:19.951Z,13.30
2022-10-09T01:36:23.509Z,13.21
2022-10-09T01:39:27.759Z,13.15
2022-10-09T01:42:32.654Z,13.09
2022-10-09T01:45:40.789Z,13.03
2022-10-09T01:48:45.996Z,12.98
2022-10-09T01:51:55.566Z,12.92
2022-10-09T01:55:05.769Z,12.85
2022-10-09T01:58:34.787Z,12.94
2022-10-09T02:01:39.653Z,12.96
2022-10-09T02:04:44.092Z,12.95
2022-10-09T02:07:47.259Z,13.06
2022-10-09T02:10:55.250Z,13.11
2022-10-09T02:13:59.270Z,13.12
2022-10-09T02:17:08.131Z,13.12
2022-10-09T02:20:30.194Z,13.18
2022-10-09T02:23:35.043Z,13.23
2022-10-09T02:26:38.617Z,13.31
2022-10-09T02:29:43.751Z,13.42
2022-10-09T02:32:51.291Z,13.40
2022-10-09T02:35:54.351Z,13.37
2022-10-09T02:38:57.441Z,13.41
2022-10-09T02:42:00.585Z,13.45
2022-10-09T02:45:03.805Z,13.50
2022-10-09T02:48:06.675Z,13.43
2022-10-09T02:51:09.542Z,13.46
2022-10-09T02:54:12.376Z,13.53
2022-10-09T02:57:14.950Z,13.46
2022-10-09T03:00:17.995Z,13.45
2022-10-09T03:03:20.785Z,13.43
2022-10-09T03:06:25.617Z,13.38
2022-10-09T03:09:33.431Z,13.33
2022-10-09T03:12:36.620Z,13.45
2022-10-09T03:15:39.167Z,13.44
2022-10-09T03:18:43.237Z,13.52
2022-10-09T03:21:45.784Z,13.52
2022-10-09T03:24:48.590Z,13.52
2022-10-09T03:27:51.146Z,13.31
2022-10-09T03:30:54.546Z,13.53
2022-10-09T03:33:57.447Z,13.47
2022-10-09T03:37:00.280Z,13.45
2022-10-09T03:40:03.047Z,13.37
2022-10-09T03:43:05.998Z,13.35
2022-10-09T03:46:09.181Z,13.41
2022-10-09T03:49:12.303Z,13.32
2022-10-09T03:52:14.824Z,13.25
2022-10-09T03:55:17.728Z,13.27
2022-10-09T03:58:20.422Z,13.24
2022-10-09T04:01:23.457Z,13.15
2022-10-09T04:04:27.080Z,13.22
2022-10-09T04:07:29.644Z,13.09
2022-10-09T04:10:41.500Z,13.06
2022-10-09T04:13:44.081Z,12.99
2022-10-09T04:16:47.006Z,12.96
2022-10-09T04:19:49.690Z,12.98
2022-10-09T04:22:52.884Z,13.00
2022-10-09T04:25:58.436Z,13.01
2022-10-09T04:29:01.213Z,12.99
2022-10-09T04:32:03.867Z,13.09
2022-10-09T04:35:07.006Z,13.10
2022-10-09T04:38:09.685Z,13.10
2022-10-09T04:41:13.122Z,13.11
2022-10-09T04:44:15.719Z,13.05
2022-10-09T04:47:18.667Z,12.96
2022-10-09T04:50:21.244Z,12.90
2022-10-09T04:53:34.533Z,12.81
2022-10-09T04:56:37.652Z,12.72
2022-10-09T04:59:40.606Z,12.62
2022-10-09T05:02:43.161Z,12.43
2022-10-09T05:05:46.018Z,12.37
2022-10-09T05:08:49.354Z,12.23
2022-10-09T05:11:52.229Z,12.07
2022-10-09T05:14:54.743Z,12.06
2022-10-09T05:17:57.827Z,12.04
2022-10-09T05:21:03.422Z,12.17
2022-10-09T05:24:10.206Z,12.19
2022-10-09T05:27:13.065Z,12.36
2022-10-09T05:30:16.010Z,12.42
2022-10-09T05:33:18.762Z,12.46
2022-10-09T05:36:21.930Z,12.42
2022-10-09T05:39:24.570Z,12.56
2022-10-09T05:42:27.421Z,12.59
2022-10-09T05:45:29.993Z,12.56
2022-10-09T05:48:33.050Z,12.56
2022-10-09T05:51:37.981Z,12.78
2022-10-09T05:54:42.009Z,12.81
2022-10-09T05:57:44.551Z,12.84
2022-10-09T06:00:47.404Z,12.76
2022-10-09T06:03:52.126Z,12.80
2022-10-09T06:06:54.713Z,13.00
2022-10-09T06:09:57.546Z,13.11
2022-10-09T06:13:00.133Z,13.21
2022-10-09T06:16:03.120Z,13.53
2022-10-09T06:19:07.342Z,13.80
2022-10-09T06:22:10.318Z,14.32
2022-10-09T06:25:12.953Z,14.44
2022-10-09T06:28:15.820Z,14.58
2022-10-09T06:31:24.099Z,14.73
2022-10-09T06:34:26.999Z,14.78
2022-10-09T06:37:29.635Z,14.76
2022-10-09T06:40:36.965Z,14.81
2022-10-09T06:43:40.797Z,14.79
2022-10-09T06:46:45.229Z,14.83
2022-10-09T06:49:47.858Z,14.90
2022-10-09T06:52:50.944Z,15.10
2022-10-09T06:55:55.137Z,15.25
2022-10-09T06:59:03.037Z,15.28
2022-10-09T07:02:05.642Z,15.24
2022-10-09T07:05:08.908Z,15.44
2022-10-09T07:08:11.514Z,15.47
2022-10-09T07:11:23.258Z,15.44
2022-10-09T07:14:25.998Z,15.62
2022-10-09T07:17:28.878Z,15.46
2022-10-09T07:20:31.510Z,15.39
2022-10-09T07:23:35.434Z,15.16
2022-10-09T07:26:40.746Z,15.03
2022-10-09T07:29:44.210Z,15.23
2022-10-09T07:32:47.126Z,15.50
2022-10-09T07:36:10.444Z,15.70
2022-10-09T07:39:13.124Z,16.16
2022-10-09T07:42:15.965Z,16.65
2022-10-09T07:45:18.533Z,17.24
2022-10-09T07:48:21.350Z,17.28
2022-10-09T07:51:26.365Z,17.72
2022-10-09T07:54:29.118Z,18.08
2022-10-09T07:57:31.689Z,18.42
2022-10-09T08:00:35.512Z,18.65
2022-10-09T08:03:38.549Z,18.89
2022-10-09T08:06:41.163Z,19.21
2022-10-09T08:09:44.075Z,19.43
2022-10-09T08:12:47.019Z,19.55
2022-10-09T08:15:50.298Z,19.77
2022-10-09T08:18:58.081Z,19.24
2022-10-09T08:22:03.481Z,19.08
2022-10-09T08:25:06.658Z,19.34
2022-10-09T08:28:09.718Z,19.29
2022-10-09T08:31:14.280Z,19.43
2022-10-09T08:34:17.808Z,19.49
2022-10-09T08:37:20.372Z,19.20
2022-10-09T08:40:33.809Z,19.29
2022-10-09T08:43:41.436Z,18.89
2022-10-09T08:47:07.521Z,18.92
2022-10-09T08:50:20.308Z,18.77
2022-10-09T08:53:43.473Z,19.36
2022-10-09T08:56:47.723Z,19.31
2022-10-09T08:59:51.013Z,19.22
2022-10-09T09:03:18.775Z,19.13
2022-10-09T09:06:46.219Z,19.27
2022-10-09T09:10:05.603Z,19.09
2022-10-09T09:13:48.715Z,18.94
2022-10-09T09:16:59.696Z,18.72
2022-10-09T09:20:17.357Z,18.94
2022-10-09T09:23:27.009Z,18.53
2022-10-09T09:26:30.424Z,17.94
2022-10-09T09:29:41.291Z,17.78
2022-10-09T09:32:50.564Z,17.76
2022-10-09T09:36:12.149Z,17.97
2022-10-09T09:42:37.868Z,18.28
2022-10-09T09:45:41.330Z,18.20
2022-10-09T09:48:48.588Z,18.47
2022-10-09T09:51:51.897Z,18.43
2022-10-09T09:54:57.782Z,18.74
2022-10-09T09:58:03.871Z,18.26
2022-10-09T10:01:07.670Z,18.51
2022-10-09T10:04:20.197Z,18.62
2022-10-09T10:07:37.817Z,18.62
2022-10-09T10:10:46.505Z,18.50
2022-10-09T10:13:49.835Z,18.73
2022-10-09T10:16:54.889Z,18.90
2022-10-09T10:19:57.409Z,18.90
2022-10-09T10:23:00.920Z,18.90
2022-10-09T10:26:42.571Z,18.94
2022-10-09T10:29:49.133Z,18.78
2022-10-09T10:33:07.975Z,18.86
2022-10-09T10:36:11.086Z,18.82
2022-10-09T10:39:26.926Z,18.78
2022-10-09T10:42:57.450Z,18.74
2022-10-09T10:46:13.409Z,18.64
2022-10-09T10:49:21.323Z,18.36
2022-10-09T10:52:45.727Z,18.59
2022-10-09T10:55:55.823Z,18.76
2022-10-09T10:59:13.128Z,18.74
2022-10-09T11:02:39.447Z,18.96
2022-10-09T11:05:53.549Z,19.06
2022-10-09T11:09:21.302Z,18.86
2022-10-09T11:12:48.240Z,18.63
2022-10-09T11:16:04.753Z,18.44
2022-10-09T11:19:45.697Z,18.47
2022-10-09T11:23:19.984Z,18.49
2022-10-09T11:26:27.747Z,18.38
2022-10-09T11:29:41.731Z,18.72
2022-10-09T11:33:02.647Z,18.80
2022-10-09T11:36:15.162Z,18.86
2022-10-09T11:39:22.451Z,18.87
2022-10-09T11:42:31.467Z,18.85
2022-10-09T11:46:02.714Z,18.60
2022-10-09T11:49:17.650Z,18.74
2022-10-09T11:52:41.958Z,18.89
2022-10-09T11:55:45.895Z,18.83
2022-10-09T11:59:07.690Z,18.65
2022-10-09T12:02:26.574Z,18.73
2022-10-09T12:05:42.474Z,18.84
2022-10-09T12:08:57.775Z,18.39
2022-10-09T12:12:22.490Z,18.59
2022-10-09T12:15:55.093Z,18.63
2022-10-09T12:19:01.745Z,18.70
2022-10-09T12:22:12.695Z,18.58
2022-10-09T12:25:19.688Z,18.62
2022-10-09T12:28:49.169Z,18.66
2022-10-09T12:31:57.113Z,18.64
2022-10-09T12:35:02.615Z,18.64
2022-10-09T12:38:23.111Z,18.66
2022-10-09T12:41:30.219Z,18.50
2022-10-09T12:44:38.511Z,18.47
2022-10-09T12:47:41.105Z,18.46
2022-10-09T12:50:43.928Z,18.63
2022-10-09T12:53:51.513Z,18.74
2022-10-09T12:56:57.567Z,18.72
2022-10-09T13:00:00.519Z,18.66
2022-10-09T13:03:03.547Z,18.70
2022-10-09T13:06:13.870Z,18.72
2022-10-09T13:09:21.973Z,18.61
2022-10-09T13:12:27.794Z,18.55
2022-10-09T13:15:37.159Z,18.54
2022-10-09T13:18:40.028Z,18.54
2022-10-09T13:21:42.958Z,18.46
2022-10-09T13:24:46.343Z,18.32
2022-10-09T13:27:49.404Z,18.34
2022-10-09T13:30:52.252Z,18.33
2022-10-09T13:33:55.167Z,18.33
2022-10-09T13:36:57.855Z,18.30
2022-10-09T13:40:01.054Z,18.39
2022-10-09T13:43:05.675Z,18.32
2022-10-09T13:46:08.987Z,18.23
2022-10-09T13:49:11.761Z,18.14
2022-10-09T13:52:14.655Z,18.10
2022-10-09T13:55:17.476Z,17.97
2022-10-09T13:58:21.279Z,18.00
2022-10-09T14:01:24.013Z,17.98
2022-10-09T14:04:28.184Z,17.89
2022-10-09T14:07:30.994Z,17.80
2022-10-09T14:10:33.978Z,17.68
2022-10-09T14:13:36.507Z,17.62
2022-10-09T14:16:39.397Z,17.69
2022-10-09T14:19:42.016Z,17.51
2022-10-09T14:22:44.885Z,17.53
2022-10-09T14:25:47.514Z,17.43
2022-10-09T14:28:50.472Z,17.37
2022-10-09T14:31:53.183Z,17.32
2022-10-09T14:34:56.053Z,17.21
2022-10-09T14:37:59.084Z,17.13
2022-10-09T14:41:01.971Z,17.13
2022-10-09T14:44:05.022Z,17.03
2022-10-09T14:47:07.905Z,17.02
2022-10-09T14:50:10.617Z,17.05
2022-10-09T14:53:13.502Z,16.96
2022-10-09T14:56:20.728Z,16.88
2022-10-09T14:59:24.679Z,16.81
2022-10-09T15:02:27.225Z,16.70
2022-10-09T15:05:30.714Z,16.65
2022-10-09T15:08:35.151Z,16.58
2022-10-09T15:11:38.614Z,16.46
2022-10-09T15:14:41.164Z,16.39
2022-10-09T15:17:43.981Z,16.32
2022-10-09T15:20:47.021Z,16.20
2022-10-09T15:23:52.842Z,16.05
2022-10-09T15:26:55.574Z,15.94
2022-10-09T15:29:58.410Z,15.69
2022-10-09T15:33:02.882Z,15.65
2022-10-09T15:36:05.726Z,15.45
2022-10-09T15:39:09.148Z,15.26
2022-10-09T15:42:12.093Z,15.00
2022-10-09T15:45:14.645Z,14.77
2022-10-09T15:48:19.884Z,14.55
2022-10-09T15:51:22.959Z,14.38
2022-10-09T15:54:25.916Z,14.17
2022-10-09T15:57:28.621Z,14.00
2022-10-09T16:00:35.675Z,13.81
2022-10-09T16:03:38.981Z,13.65
2022-10-09T16:06:41.783Z,13.44
2022-10-09T16:09:44.739Z,13.26
2022-10-09T16:12:47.986Z,13.03
2022-10-09T16:15:51.602Z,12.84
2022-10-09T16:18:55.066Z,12.65
2022-10-09T16:21:58.037Z,12.45
2022-10-09T16:25:00.881Z,12.21
2022-10-09T16:28:05.205Z,12.07
2022-10-09T16:31:07.925Z,11.90
2022-10-09T16:34:10.915Z,11.75
2022-10-09T16:37:13.551Z,11.63
2022-10-09T16:40:16.550Z,11.52
2022-10-09T16:43:20.195Z,11.40
2022-10-09T16:46:28.862Z,11.31
2022-10-09T16:49:31.582Z,11.22
2022-10-09T16:52:34.587Z,11.15
2022-10-09T16:55:37.351Z,11.10
2022-10-09T16:58:42.532Z,10.97
2022-10-09T17:01:46.540Z,10.93
2022-10-09T17:04:49.570Z,10.86
2022-10-09T17:07:52.601Z,10.83
2022-10-09T17:10:55.754Z,10.73
2022-10-09T17:13:58.675Z,10.62
2022-10-09T17:17:01.906Z,10.52
2022-10-09T17:20:05.009Z,10.47
2022-10-09T17:23:08.411Z,10.48
2022-10-09T17:26:17.792Z,10.44
2022-10-09T17:29:21.463Z,10.45
2022-10-09T17:32:24.233Z,10.44
2022-10-09T17:35:27.414Z,10.37
2022-10-09T17:38:30.051Z,10.32
2022-10-09T17:41:34.678Z,10.28
2022-10-09T17:44:37.279Z,10.21
2022-10-09T17:47:40.309Z,10.15
2022-10-09T17:50:53.669Z,10.10
2022-10-09T17:54:08.300Z,10.08
2022-10-09T17:57:14.679Z,10.03
2022-10-09T18:00:21.697Z,9.94
2022-10-09T18:03:24.993Z,9.90
2022-10-09T18:06:30.324Z,9.87
2022-10-09T18:09:33.339Z,9.83
2022-10-09T18:12:36.022Z,9.75
2022-10-09T18:15:40.603Z,9.70
2022-10-09T18:18:44.103Z,9.68
2022-10-09T18:21:49.222Z,9.62
2022-10-09T18:24:51.915Z,9.55
2022-10-09T18:27:54.905Z,9.48
2022-10-09T18:30:58.789Z,9.42
2022-10-09T18:34:01.946Z,9.35
2022-10-09T18:37:04.838Z,9.28
2022-10-09T18:40:08.530Z,9.27
2022-10-09T18:43:11.454Z,9.24
2022-10-09T18:46:21.180Z,9.21
2022-10-09T18:49:28.140Z,9.18
2022-10-09T18:52:33.725Z,9.18
2022-10-09T18:55:36.619Z,9.15
2022-10-09T18:58:41.612Z,9.13
2022-10-09T19:01:44.541Z,9.04
2022-10-09T19:04:47.711Z,9.01
2022-10-09T19:07:50.683Z,9.03
2022-10-09T19:10:54.205Z,9.00
2022-10-09T19:14:00.200Z,9.02
2022-10-09T19:17:03.110Z,9.00
2022-10-09T19:20:06.229Z,8.94
2022-10-09T19:23:10.265Z,8.91
2022-10-09T19:26:13.682Z,8.87
2022-10-09T19:29:16.687Z,8.83
2022-10-09T19:32:23.576Z,8.85
2022-10-09T19:35:26.733Z,8.87
2022-10-09T19:38:29.804Z,8.90
2022-10-09T19:41:32.839Z,8.87
2022-10-09T19:44:35.483Z,8.88
2022-10-09T19:47:38.563Z,8.89
2022-10-09T19:50:43.095Z,8.88
2022-10-09T19:53:46.845Z,8.83
2022-10-09T19:56:49.585Z,8.76
2022-10-09T19:59:52.654Z,8.70
2022-10-09T20:02:55.678Z,8.70
2022-10-09T20:06:02.780Z,8.74
2022-10-09T20:09:07.867Z,8.77
2022-10-09T20:12:10.837Z,8.69
2022-10-09T20:15:13.418Z,8.69
2022-10-09T20:18:16.304Z,8.75
2022-10-09T20:21:19.066Z,8.74
2022-10-09T20:24:22.174Z,8.94
2022-10-09T20:27:25.136Z,8.89
2022-10-09T20:30:28.160Z,9.07
2022-10-09T20:33:30.823Z,9.09
2022-10-09T20:36:36.222Z,9.44
2022-10-09T20:39:40.278Z,9.40
2022-10-09T20:42:43.288Z,9.44
2022-10-09T20:45:46.036Z,9.67
2022-10-09T20:48:49.405Z,9.54
2022-10-09T20:51:53.223Z,9.45
2022-10-09T20:54:56.127Z,9.31
2022-10-09T20:57:58.801Z,9.21
2022-10-09T21:01:06.039Z,9.21
2022-10-09T21:04:11.162Z,9.04
2022-10-09T21:07:14.098Z,8.87
2022-10-09T21:10:16.903Z,8.62
2022-10-09T21:13:19.982Z,8.48
2022-10-09T21:16:24.379Z,8.36
2022-10-09T21:19:27.429Z,8.29
2022-10-09T21:22:30.152Z,8.25
2022-10-09T21:25:33.577Z,8.21
2022-10-09T21:28:36.321Z,8.15
2022-10-09T21:31:39.628Z,8.16
2022-10-09T21:34:42.250Z,8.21
2022-10-09T21:37:45.307Z,8.60
2022-10-09T21:40:49.572Z,8.61
2022-10-09T21:43:52.431Z,8.86
2022-10-09T21:46:55.080Z,9.06
2022-10-09T21:49:58.132Z,9.20
2022-10-09T21:53:01.223Z,9.46
2022-10-09T21:56:05.205Z,9.45
2022-10-09T21:59:08.235Z,9.68
2022-10-09T22:02:11.234Z,9.78
2022-10-09T22:05:14.407Z,9.87
2022-10-09T22:08:17.033Z,10.18
2022-10-09T22:11:20.142Z,10.56
2022-10-09T22:14:23.041Z,10.88
2022-10-09T22:17:26.006Z,11.15
2022-10-09T22:20:28.688Z,11.46
2022-10-09T22:23:31.708Z,11.53
2022-10-09T22:26:34.312Z,11.57
2022-10-09T22:29:38.409Z,11.47
2022-10-09T22:32:41.168Z,11.64
2022-10-09T22:35:45.824Z,11.63
2022-10-09T22:38:48.455Z,11.62
2022-10-09T22:41:51.538Z,11.62
2022-10-09T22:44:54.183Z,11.60
2022-10-09T22:47:57.254Z,11.71
2022-10-09T22:51:02.210Z,11.75
2022-10-09T22:54:05.909Z,11.70
2022-10-09T22:57:08.643Z,11.73
2022-10-09T23:00:12.486Z,11.83
2022-10-09T23:03:15.112Z,11.87
2022-10-09T23:06:19.954Z,11.93
2022-10-09T23:09:25.336Z,12.00
2022-10-09T23:12:28.353Z,11.96
2022-10-09T23:15:31.242Z,11.99
2022-10-09T23:18:35.072Z,11.94
2022-10-09T23:21:40.309Z,11.93
2022-10-09T23:24:43.366Z,12.01
2022-10-09T23:27:45.996Z,11.92
2022-10-09T23:30:49.409Z,11.92
2022-10-09T23:33:52.224Z,11.91
2022-10-09T23:36:55.220Z,11.81
2022-10-09T23:39:57.886Z,11.70
2022-10-09T23:43:00.813Z,11.62
2022-10-09T23:46:05.698Z,11.54
2022-10-09T23:49:08.717Z,11.47
2022-10-09T23:52:11.463Z,11.43
2022-10-09T23:55:14.608Z,11.33
2022-10-09T23:58:20.902Z,11.31
